Time;durP1;ratioP1;P1;durP2;ratioP2;P2;SDS_P1;SDS_P2;PMS_P1;PMS_P2;Temp;Humidity;BMP_temperature;BMP_pressure;BME280_temperature;BME280_humidity;BME280_pressure;Samples;Min_cycle;Max_cycle;Signal;HPM_P1;HPM_P2
2023/10/27 00:01:43;;;;;;;2.60;1.47;;;7.50;99.90;7.20;98431.00;;;;4896087;28;112342;-65
2023/10/27 00:04:08;;;;;;;3.20;1.93;;;7.30;99.90;7.20;98434.00;;;;4897887;28;99610;-65
2023/10/27 00:06:34;;;;;;;3.00;2.10;;;7.30;99.90;7.10;98428.00;;;;4893444;28;88036;-65
2023/10/27 00:09:00;;;;;;;1.43;1.17;;;7.70;99.90;7.10;98432.00;;;;4893780;28;118151;-66
2023/10/27 00:11:27;;;;;;;2.03;1.53;;;7.30;99.90;7.10;98433.00;;;;4892426;28;99684;-66
2023/10/27 00:13:52;;;;;;;2.30;1.93;;;7.20;99.90;7.10;98428.00;;;;4893373;28;87921;-66
2023/10/27 00:16:18;;;;;;;2.20;1.60;;;7.40;99.90;7.00;98426.00;;;;4896565;28;108714;-66
2023/10/27 00:18:44;;;;;;;4.40;1.97;;;7.60;99.90;7.00;98426.00;;;;4892046;28;117028;-66
2023/10/27 00:21:10;;;;;;;7.33;1.97;;;7.20;99.90;7.00;98420.00;;;;4887576;28;116223;-66
2023/10/27 00:23:36;;;;;;;10.07;2.10;;;7.40;99.90;7.00;98421.00;;;;4893994;28;88915;-66
2023/10/27 00:26:02;;;;;;;3.07;2.23;;;7.60;99.90;7.00;98420.00;;;;4891570;28;88683;-66
2023/10/27 00:28:29;;;;;;;3.83;2.23;;;7.10;99.90;7.00;98416.00;;;;4878142;28;99894;-66
2023/10/27 00:30:55;;;;;;;2.10;1.23;;;7.10;99.90;7.10;98415.00;;;;4894046;28;89358;-65
2023/10/27 00:33:21;;;;;;;1.73;1.13;;;7.30;99.90;7.10;98411.00;;;;4884619;28;87905;-65
2023/10/27 00:35:52;;;;;;;3.40;2.13;;;7.20;99.90;7.10;98401.00;;;;4882958;28;87992;-65
2023/10/27 00:38:18;;;;;;;2.03;1.83;;;7.20;99.90;7.10;98393.00;;;;4879234;28;110659;-66
2023/10/27 00:40:44;;;;;;;5.60;2.00;;;7.40;99.90;7.00;98390.00;;;;4874431;28;87797;-65
2023/10/27 00:43:15;;;;;;;2.77;1.47;;;7.20;99.90;7.00;98380.00;;;;4889554;28;90432;-65
2023/10/27 00:45:41;;;;;;;4.27;2.33;;;7.10;99.90;7.00;98381.00;;;;4870698;28;88124;-66
2023/10/27 00:48:07;;;;;;;2.23;1.97;;;7.10;99.90;6.90;98371.00;;;;4878626;28;111737;-65
2023/10/27 00:50:33;;;;;;;2.57;2.10;;;7.50;99.90;6.90;98362.00;;;;4888601;28;110328;-65
2023/10/27 00:52:59;;;;;;;1.77;1.60;;;7.20;99.90;6.80;98363.00;;;;4886002;28;102346;-65
2023/10/27 00:55:25;;;;;;;2.73;1.83;;;7.00;99.90;6.80;98371.00;;;;4894211;28;87654;-66
2023/10/27 00:57:54;;;;;;;1.83;1.50;;;7.10;99.90;6.80;98369.00;;;;4889403;28;114608;-66
2023/10/27 01:00:20;;;;;;;1.87;1.70;;;6.90;99.90;6.80;98368.00;;;;4893010;28;88147;-65
2023/10/27 01:02:46;;;;;;;3.43;1.77;;;7.40;99.90;6.70;98365.00;;;;4883334;28;88248;-66
2023/10/27 01:05:15;;;;;;;1.67;1.47;;;6.90;99.90;6.70;98370.00;;;;4892195;28;87334;-66
2023/10/27 01:07:41;;;;;;;3.00;1.77;;;6.90;99.90;6.70;98363.00;;;;4888150;28;115474;-66
2023/10/27 01:10:07;;;;;;;1.60;1.50;;;6.80;99.90;6.70;98367.00;;;;4888545;28;116233;-66
2023/10/27 01:12:33;;;;;;;2.03;1.67;;;6.80;99.90;6.70;98362.00;;;;4892386;28;88546;-65
2023/10/27 01:14:59;;;;;;;6.97;2.17;;;6.80;99.90;6.60;98355.00;;;;4891316;28;87751;-65
2023/10/27 01:17:25;;;;;;;2.93;1.73;;;6.80;99.90;6.60;98356.00;;;;4875962;28;118728;-65
2023/10/27 01:19:50;;;;;;;1.80;1.70;;;6.70;99.90;6.60;98357.00;;;;4875576;28;116520;-66
2023/10/27 01:22:16;;;;;;;3.37;2.13;;;6.80;99.90;6.60;98341.00;;;;4871338;28;110418;-66
2023/10/27 01:24:42;;;;;;;3.33;2.40;;;6.70;99.90;6.60;98323.00;;;;4874446;28;87897;-66
2023/10/27 01:27:08;;;;;;;2.10;1.77;;;6.80;99.90;6.60;98321.00;;;;4867857;28;118874;-66
2023/10/27 01:29:34;;;;;;;2.83;2.10;;;7.20;99.90;6.70;98329.00;;;;4865963;28;102080;-66
2023/10/27 01:31:59;;;;;;;1.70;1.60;;;6.80;99.90;6.70;98329.00;;;;4867662;28;97187;-66
2023/10/27 01:34:25;;;;;;;1.80;1.70;;;6.90;99.90;6.80;98318.00;;;;4849701;28;108768;-66
2023/10/27 01:36:51;;;;;;;2.30;1.87;;;7.20;99.90;6.80;98322.00;;;;4872798;28;89291;-66
2023/10/27 01:39:17;;;;;;;1.77;1.67;;;6.90;99.90;6.80;98320.00;;;;4867953;28;117751;-66
2023/10/27 01:41:43;;;;;;;2.03;1.80;;;7.00;99.90;6.90;98324.00;;;;4872747;28;87793;-66
2023/10/27 01:44:08;;;;;;;2.53;2.00;;;7.60;99.90;6.90;98325.00;;;;4856707;28;88235;-66
2023/10/27 01:46:34;;;;;;;3.97;1.63;;;7.00;99.90;6.90;98327.00;;;;4869741;28;118319;-67
2023/10/27 01:49:00;;;;;;;2.87;1.80;;;7.10;99.90;6.90;98322.00;;;;4873632;28;116033;-66
2023/10/27 01:51:25;;;;;;;3.10;1.93;;;7.50;99.90;7.00;98324.00;;;;4871631;28;110455;-66
2023/10/27 01:53:51;;;;;;;2.20;1.83;;;7.50;99.90;7.00;98327.00;;;;4873242;28;88821;-66
2023/10/27 01:56:17;;;;;;;2.70;2.03;;;7.60;99.90;7.00;98317.00;;;;4874486;28;116434;-67
2023/10/27 01:58:44;;;;;;;1.70;1.60;;;7.10;99.90;7.00;98311.00;;;;4873793;28;87893;-66
2023/10/27 02:01:12;;;;;;;2.47;1.33;;;7.10;99.90;7.00;98320.00;;;;4873640;28;89079;-66
2023/10/27 02:03:38;;;;;;;2.40;1.83;;;7.30;99.90;6.90;98319.00;;;;4870439;28;88506;-66
2023/10/27 02:06:04;;;;;;;6.30;2.23;;;7.30;99.90;6.90;98326.00;;;;4876259;28;115398;-66
2023/10/27 02:08:29;;;;;;;3.90;1.97;;;7.10;99.90;6.90;98319.00;;;;4872962;28;110488;-66
2023/10/27 02:10:55;;;;;;;2.23;1.63;;;7.10;99.90;6.90;98324.00;;;;4872243;28;110669;-65
2023/10/27 02:13:21;;;;;;;2.23;1.77;;;7.30;99.90;6.90;98322.00;;;;4874160;28;101198;-65
2023/10/27 02:15:46;;;;;;;1.17;1.07;;;7.00;99.90;6.90;98326.00;;;;4868231;28;110460;-65
2023/10/27 02:18:12;;;;;;;1.27;1.17;;;7.20;99.90;6.90;98324.00;;;;4891687;28;116771;-65
2023/10/27 02:20:38;;;;;;;2.13;1.47;;;7.40;99.90;6.90;98324.00;;;;4890780;28;110273;-65
2023/10/27 02:23:03;;;;;;;2.27;1.87;;;7.10;99.90;6.90;98328.00;;;;4884176;28;106395;-65
2023/10/27 02:25:29;;;;;;;2.00;1.77;;;7.40;99.90;6.90;98326.00;;;;4888962;28;117978;-66
2023/10/27 02:27:55;;;;;;;4.10;1.60;;;7.30;99.90;6.90;98321.00;;;;4882602;28;116817;-65
2023/10/27 02:30:20;;;;;;;2.50;1.97;;;7.10;99.90;6.90;98325.00;;;;4894446;28;111041;-65
2023/10/27 02:32:46;;;;;;;2.03;1.83;;;7.10;99.90;7.00;98323.00;;;;4885717;28;104166;-65
2023/10/27 02:35:11;;;;;;;1.43;1.13;;;7.60;99.90;7.00;98318.00;;;;4893038;28;88747;-65
2023/10/27 02:37:37;;;;;;;1.50;1.33;;;7.10;99.90;7.00;98332.00;;;;4882123;28;118078;-66
2023/10/27 02:40:04;;;;;;;4.80;2.30;;;7.10;99.90;7.00;98317.00;;;;4889333;28;109942;-65
2023/10/27 02:42:29;;;;;;;1.73;1.63;;;7.10;99.90;7.00;98325.00;;;;4885725;28;87116;-65
2023/10/27 02:44:55;;;;;;;1.93;1.67;;;7.10;99.90;7.00;98321.00;;;;4892437;28;117087;-65
2023/10/27 02:47:23;;;;;;;1.80;1.40;;;7.10;99.90;7.00;98319.00;;;;4882749;28;118061;-65
2023/10/27 02:49:49;;;;;;;1.97;1.40;;;7.50;99.90;7.00;98324.00;;;;4890535;28;109246;-65
2023/10/27 02:52:15;;;;;;;2.70;1.33;;;7.20;99.90;7.00;98318.00;;;;4883953;28;108175;-65
2023/10/27 02:54:40;;;;;;;2.43;1.87;;;7.20;99.90;7.00;98317.00;;;;4897512;28;119750;-65
2023/10/27 02:57:06;;;;;;;3.20;2.07;;;7.20;99.90;7.00;98319.00;;;;4892317;28;118288;-67
2023/10/27 02:59:31;;;;;;;3.43;1.60;;;7.60;99.90;7.00;98321.00;;;;4891469;28;108628;-66
2023/10/27 03:02:00;;;;;;;1.93;1.80;;;7.10;99.90;7.00;98326.00;;;;4893650;28;88065;-66
2023/10/27 03:04:27;;;;;;;2.27;1.33;;;7.10;99.90;6.90;98323.00;;;;4895242;28;109604;-65
2023/10/27 03:06:52;;;;;;;2.50;1.53;;;7.50;99.90;6.80;98329.00;;;;4895675;28;88631;-66
2023/10/27 03:09:18;;;;;;;2.23;1.50;;;7.00;99.90;6.80;98323.00;;;;4894940;28;108926;-65
2023/10/27 03:11:44;;;;;;;0.93;0.93;;;7.20;99.90;6.70;98311.00;;;;4893567;28;102467;-66
2023/10/27 03:14:09;;;;;;;1.50;1.30;;;6.90;99.90;6.70;98308.00;;;;4880045;28;118568;-66
2023/10/27 03:16:35;;;;;;;1.60;0.97;;;6.90;99.90;6.70;98301.00;;;;4893372;28;88033;-66
2023/10/27 03:19:01;;;;;;;2.13;1.60;;;6.90;99.90;6.70;98307.00;;;;4898242;28;89503;-66
2023/10/27 03:21:26;;;;;;;1.77;1.30;;;7.00;99.90;6.70;98293.00;;;;4895664;28;88069;-65
2023/10/27 03:23:52;;;;;;;1.87;1.43;;;6.80;99.90;6.70;98303.00;;;;4897160;28;117319;-66
2023/10/27 03:26:18;;;;;;;2.30;1.67;;;6.80;99.90;6.70;98304.00;;;;4895822;28;112019;-65
2023/10/27 03:28:43;;;;;;;2.93;2.03;;;6.90;99.90;6.70;98301.00;;;;4893778;28;111101;-66
2023/10/27 03:31:12;;;;;;;2.53;1.63;;;6.80;99.90;6.70;98294.00;;;;4896799;28;108514;-65
2023/10/27 03:33:38;;;;;;;3.70;2.23;;;7.10;99.90;6.70;98298.00;;;;4893471;28;88589;-65
2023/10/27 03:36:05;;;;;;;1.20;1.00;;;7.10;99.90;6.70;98296.00;;;;4894479;28;87961;-65
2023/10/27 03:38:30;;;;;;;2.27;1.40;;;6.80;99.90;6.70;98291.00;;;;4895541;28;89183;-66
2023/10/27 03:40:56;;;;;;;2.03;1.43;;;6.60;99.90;6.70;98290.00;;;;4893400;28;108915;-66
2023/10/27 03:43:22;;;;;;;2.67;1.93;;;7.20;99.90;6.70;98286.00;;;;4894667;28;113839;-66
2023/10/27 03:45:47;;;;;;;2.13;1.90;;;6.80;99.90;6.70;98286.00;;;;4895446;28;88117;-67
2023/10/27 03:48:14;;;;;;;1.73;1.20;;;7.00;99.90;6.70;98275.00;;;;4897653;28;111003;-67
2023/10/27 03:50:40;;;;;;;2.43;1.67;;;7.40;99.90;6.70;98286.00;;;;4892654;28;87661;-66
2023/10/27 03:53:05;;;;;;;2.27;1.40;;;6.90;99.90;6.70;98281.00;;;;4891610;28;116941;-67
2023/10/27 03:55:31;;;;;;;2.03;1.60;;;6.90;99.90;6.70;98273.00;;;;4896008;28;118429;-66
2023/10/27 03:58:15;;;;;;;2.50;2.30;;;6.80;99.90;6.70;98274.00;;;;4891786;28;87790;-66
2023/10/27 04:00:42;;;;;;;1.97;1.83;;;7.40;99.90;6.70;98280.00;;;;4899325;28;87932;-66
2023/10/27 04:03:07;;;;;;;3.13;2.07;;;6.90;99.90;6.70;98280.00;;;;4881231;28;89750;-67
2023/10/27 04:05:33;;;;;;;1.90;1.50;;;7.50;99.90;6.70;98279.00;;;;4892080;28;117855;-67
2023/10/27 04:07:59;;;;;;;2.60;2.17;;;7.00;99.90;6.70;98275.00;;;;4882781;28;109903;-66
2023/10/27 04:10:24;;;;;;;2.77;1.87;;;6.80;99.90;6.70;98279.00;;;;4888113;28;108505;-66
2023/10/27 04:12:51;;;;;;;4.60;1.87;;;7.30;99.90;6.60;98281.00;;;;4879987;28;118266;-65
2023/10/27 04:15:17;;;;;;;2.00;1.20;;;6.70;99.90;6.50;98279.00;;;;4890547;28;88716;-65
2023/10/27 04:17:43;;;;;;;2.20;1.60;;;6.70;99.90;6.50;98268.00;;;;4879438;28;100728;-66
2023/10/27 04:20:09;;;;;;;1.93;1.30;;;6.70;99.90;6.50;98270.00;;;;4888178;28;108965;-65
2023/10/27 04:22:35;;;;;;;1.50;1.40;;;6.70;99.90;6.50;98271.00;;;;4888686;28;89510;-65
2023/10/27 04:25:01;;;;;;;2.80;2.27;;;6.90;99.90;6.50;98282.00;;;;4889249;28;117613;-65
2023/10/27 04:27:28;;;;;;;1.90;1.63;;;6.70;99.90;6.50;98274.00;;;;4887416;28;97697;-65
2023/10/27 04:29:54;;;;;;;2.40;1.43;;;6.70;99.90;6.60;98260.00;;;;4888681;28;87940;-65
2023/10/27 04:32:20;;;;;;;2.23;1.77;;;6.70;99.90;6.60;98265.00;;;;4888065;28;88705;-66
2023/10/27 04:34:46;;;;;;;2.20;1.87;;;6.70;99.90;6.60;98261.00;;;;4887979;28;87837;-65
2023/10/27 04:37:12;;;;;;;2.50;2.07;;;6.70;99.90;6.60;98255.00;;;;4886315;28;87818;-65
2023/10/27 04:39:38;;;;;;;2.83;2.00;;;6.80;99.90;6.70;98257.00;;;;4889905;28;108059;-65
2023/10/27 04:42:04;;;;;;;3.27;1.70;;;6.80;99.90;6.70;98259.00;;;;4882981;28;117844;-66
2023/10/27 04:44:30;;;;;;;3.13;1.93;;;6.80;99.90;6.70;98250.00;;;;4890537;28;88315;-65
2023/10/27 04:46:56;;;;;;;2.93;2.40;;;7.10;99.90;6.80;98251.00;;;;4887966;28;110909;-66
2023/10/27 04:49:27;;;;;;;3.23;2.17;;;6.80;99.90;6.80;98254.00;;;;4886168;28;107770;-66
2023/10/27 04:51:53;;;;;;;6.37;2.80;;;6.90;99.90;6.80;98249.00;;;;4887404;28;118683;-67
2023/10/27 04:54:18;;;;;;;2.03;1.50;;;7.10;99.90;6.90;98252.00;;;;4886210;28;118144;-66
2023/10/27 04:56:44;;;;;;;3.40;2.07;;;7.50;99.90;6.90;98255.00;;;;4889107;28;109628;-66
2023/10/27 04:59:11;;;;;;;2.73;2.33;;;7.00;99.90;6.90;98260.00;;;;4885361;28;108846;-66
2023/10/27 05:01:36;;;;;;;3.47;2.13;;;7.60;99.90;6.90;98255.00;;;;4885006;28;118028;-66
2023/10/27 05:04:02;;;;;;;2.43;1.80;;;7.00;99.90;7.00;98253.00;;;;4886954;28;115512;-66
2023/10/27 05:06:30;;;;;;;2.90;1.63;;;7.10;99.90;7.00;98251.00;;;;4888156;28;87909;-66
2023/10/27 05:08:55;;;;;;;3.20;2.00;;;7.00;99.90;7.00;98259.00;;;;4887914;28;87351;-66
2023/10/27 05:11:21;;;;;;;4.50;2.57;;;7.20;99.90;7.00;98256.00;;;;4886382;28;88492;-66
2023/10/27 05:13:48;;;;;;;5.57;3.33;;;7.60;99.90;7.00;98258.00;;;;4887004;28;88689;-66
2023/10/27 05:16:13;;;;;;;2.00;1.73;;;7.50;99.90;7.00;98245.00;;;;4884693;28;88869;-66
2023/10/27 05:18:39;;;;;;;4.17;2.43;;;7.20;99.90;7.10;98254.00;;;;4886210;28;87847;-66
2023/10/27 05:21:05;;;;;;;2.53;2.23;;;7.30;99.90;7.10;98263.00;;;;4886304;28;100449;-66
2023/10/27 05:23:30;;;;;;;1.97;1.77;;;7.60;99.90;7.20;98252.00;;;;4886760;28;118466;-66
2023/10/27 05:25:56;;;;;;;2.70;2.10;;;7.70;99.90;7.20;98257.00;;;;4883526;28;109656;-66
2023/10/27 05:28:22;;;;;;;2.33;2.03;;;7.40;99.90;7.30;98255.00;;;;4885484;28;89464;-66
2023/10/27 05:30:50;;;;;;;2.57;2.30;;;7.40;99.90;7.30;98267.00;;;;4883564;28;117191;-66
2023/10/27 05:33:16;;;;;;;3.13;2.83;;;7.80;99.90;7.30;98259.00;;;;4880970;28;88545;-66
2023/10/27 05:35:42;;;;;;;2.30;2.10;;;7.40;99.90;7.40;98265.00;;;;4882513;28;109014;-66
2023/10/27 05:38:08;;;;;;;2.93;2.47;;;8.10;99.90;7.40;98268.00;;;;4882960;28;88340;-66
2023/10/27 05:40:34;;;;;;;2.13;1.87;;;7.50;99.90;7.40;98267.00;;;;4883294;28;117054;-66
2023/10/27 05:43:00;;;;;;;4.50;3.20;;;7.50;99.90;7.50;98251.00;;;;4882913;28;89161;-66
2023/10/27 05:45:25;;;;;;;3.77;3.03;;;7.60;99.90;7.50;98250.00;;;;4886157;28;88180;-66
2023/10/27 05:47:51;;;;;;;2.93;2.70;;;7.60;99.90;7.50;98244.00;;;;4881296;28;108620;-67
2023/10/27 05:50:17;;;;;;;3.40;2.23;;;7.80;99.90;7.60;98241.00;;;;4884970;28;104616;-66
2023/10/27 05:52:42;;;;;;;4.53;2.33;;;7.60;99.90;7.60;98250.00;;;;4882737;28;118200;-66
2023/10/27 05:55:08;;;;;;;3.73;2.57;;;7.70;99.90;7.60;98250.00;;;;4882761;28;109399;-66
2023/10/27 05:57:34;;;;;;;4.10;2.80;;;7.70;99.90;7.60;98253.00;;;;4886382;28;108947;-66
2023/10/27 05:59:59;;;;;;;3.33;2.47;;;7.70;99.90;7.60;98258.00;;;;4882034;28;116674;-66
2023/10/27 06:02:25;;;;;;;2.80;2.40;;;7.70;99.90;7.60;98253.00;;;;4883469;28;117743;-66
2023/10/27 06:04:51;;;;;;;2.00;1.90;;;7.80;99.90;7.70;98249.00;;;;4884925;28;109594;-66
2023/10/27 06:07:17;;;;;;;4.77;3.03;;;7.70;99.90;7.70;98244.00;;;;4883954;28;88213;-66
2023/10/27 06:09:43;;;;;;;3.47;2.40;;;7.80;99.90;7.70;98253.00;;;;4882745;28;88358;-66
2023/10/27 06:12:09;;;;;;;3.23;2.33;;;7.80;99.90;7.70;98243.00;;;;4881698;28;88244;-66
2023/10/27 06:14:35;;;;;;;2.93;2.47;;;7.80;99.90;7.70;98236.00;;;;4870914;28;110979;-66
2023/10/27 06:17:01;;;;;;;3.70;3.37;;;8.00;99.90;7.80;98250.00;;;;4882670;28;108792;-66
2023/10/27 06:19:27;;;;;;;3.63;2.83;;;7.90;99.90;7.80;98249.00;;;;4883155;28;88002;-66
2023/10/27 06:22:00;;;;;;;4.50;3.27;;;7.90;99.90;7.90;98261.00;;;;4884263;28;88956;-66
2023/10/27 06:24:25;;;;;;;3.63;2.57;;;7.90;99.90;7.90;98250.00;;;;4883287;28;88391;-66
2023/10/27 06:26:51;;;;;;;4.63;3.40;;;8.00;99.90;7.90;98265.00;;;;4882129;28;108183;-66
2023/10/27 06:29:17;;;;;;;6.97;3.27;;;8.00;99.90;8.00;98272.00;;;;4882186;28;89991;-66
2023/10/27 06:31:43;;;;;;;2.93;2.60;;;8.10;99.90;8.00;98268.00;;;;4884084;28;96421;-66
2023/10/27 06:34:09;;;;;;;7.53;2.37;;;8.10;99.90;8.00;98273.00;;;;4882425;28;111434;-66
2023/10/27 06:36:34;;;;;;;3.33;2.93;;;8.50;99.90;8.00;98263.00;;;;4880213;28;109053;-66
2023/10/27 06:39:01;;;;;;;4.53;3.40;;;8.10;99.90;8.00;98264.00;;;;4885673;28;102457;-66
2023/10/27 06:41:27;;;;;;;4.47;2.80;;;8.10;99.90;8.10;98266.00;;;;4883097;28;88428;-66
2023/10/27 06:43:52;;;;;;;3.73;3.43;;;8.20;99.90;8.00;98261.00;;;;4883332;28;89291;-66
2023/10/27 06:46:18;;;;;;;4.60;3.87;;;8.10;99.90;8.10;98269.00;;;;4881776;28;107191;-66
2023/10/27 06:48:44;;;;;;;4.87;3.67;;;8.10;99.90;8.10;98269.00;;;;4883402;28;90355;-65
2023/10/27 06:51:09;;;;;;;6.37;3.77;;;8.20;99.90;8.10;98259.00;;;;4882576;28;116953;-66
2023/10/27 06:53:35;;;;;;;7.30;4.37;;;8.20;99.90;8.10;98254.00;;;;4883034;28;110484;-66
2023/10/27 06:56:01;;;;;;;5.23;4.13;;;8.20;99.90;8.20;98263.00;;;;4883477;28;87898;-66
2023/10/27 06:58:26;;;;;;;7.43;3.73;;;8.20;99.90;8.30;98264.00;;;;4883966;28;90712;-66
2023/10/27 07:00:52;;;;;;;5.83;3.63;;;8.40;99.90;8.30;98253.00;;;;4882598;28;116592;-66
2023/10/27 07:03:18;;;;;;;4.43;2.63;;;8.40;99.90;8.30;98260.00;;;;4884434;28;93238;-66
2023/10/27 07:05:44;;;;;;;3.97;3.57;;;8.40;99.90;8.40;98257.00;;;;4884746;28;88076;-66
2023/10/27 07:08:10;;;;;;;7.10;4.20;;;8.50;99.90;8.50;98254.00;;;;4876035;28;88851;-66
2023/10/27 07:10:36;;;;;;;6.57;4.83;;;8.50;99.90;8.50;98258.00;;;;4882534;28;117614;-67
2023/10/27 07:13:02;;;;;;;6.53;5.13;;;8.50;99.90;8.60;98257.00;;;;4870480;28;87917;-66
2023/10/27 07:15:28;;;;;;;8.87;5.20;;;8.60;99.90;8.60;98261.00;;;;4882967;28;109813;-66
2023/10/27 07:17:53;;;;;;;6.63;4.50;;;8.70;99.90;8.70;98258.00;;;;4883526;28;89916;-65
2023/10/27 07:20:19;;;;;;;6.60;3.90;;;8.70;99.90;8.70;98263.00;;;;4885259;28;90069;-65
2023/10/27 07:22:45;;;;;;;3.60;3.13;;;8.80;99.90;8.80;98249.00;;;;4883231;28;87757;-65
2023/10/27 07:25:10;;;;;;;4.60;3.33;;;8.80;99.90;8.80;98264.00;;;;4886645;28;88639;-66
2023/10/27 07:27:36;;;;;;;3.43;3.13;;;8.90;99.90;8.90;98254.00;;;;4883816;28;88503;-65
2023/10/27 07:30:03;;;;;;;8.77;4.43;;;9.00;99.90;9.00;98252.00;;;;4882526;28;104401;-65
2023/10/27 07:32:28;;;;;;;6.27;3.50;;;9.00;99.90;9.00;98257.00;;;;4885986;28;87958;-65
2023/10/27 07:34:54;;;;;;;4.57;3.40;;;9.00;99.90;9.10;98254.00;;;;4884729;28;107835;-65
2023/10/27 07:37:21;;;;;;;6.60;3.73;;;9.10;99.90;9.10;98259.00;;;;4884368;28;118168;-65
2023/10/27 07:39:47;;;;;;;5.00;3.93;;;9.20;99.90;9.20;98268.00;;;;4884113;28;88828;-64
2023/10/27 07:42:13;;;;;;;6.40;4.00;;;9.20;99.90;9.20;98261.00;;;;4885895;28;89400;-64
2023/10/27 07:44:40;;;;;;;5.00;3.27;;;9.20;99.90;9.20;98262.00;;;;4886263;28;89939;-66
2023/10/27 07:47:06;;;;;;;4.70;3.73;;;9.30;99.90;9.30;98258.00;;;;4868213;28;88302;-66
2023/10/27 07:49:31;;;;;;;5.87;4.03;;;9.30;99.90;9.30;98273.00;;;;4885042;28;117202;-66
2023/10/27 07:51:57;;;;;;;4.20;3.20;;;9.30;99.90;9.30;98262.00;;;;4889489;28;111046;-65
2023/10/27 07:54:23;;;;;;;5.27;3.80;;;9.30;99.90;9.40;98263.00;;;;4888870;28;88859;-66
2023/10/27 07:56:49;;;;;;;3.03;2.60;;;9.50;99.90;9.40;98259.00;;;;4886296;28;115021;-65
2023/10/27 07:59:14;;;;;;;4.03;3.20;;;9.40;99.90;9.50;98257.00;;;;4886383;28;117446;-65
2023/10/27 08:01:40;;;;;;;4.73;3.57;;;9.50;99.90;9.50;98254.00;;;;4886499;28;111329;-66
2023/10/27 08:04:06;;;;;;;5.13;3.30;;;9.50;99.90;9.50;98248.00;;;;4887367;28;109830;-65
2023/10/27 08:06:32;;;;;;;6.77;2.93;;;9.50;99.90;9.60;98251.00;;;;4888508;28;105741;-66
2023/10/27 08:08:59;;;;;;;5.27;3.43;;;9.60;99.90;9.60;98250.00;;;;4883322;28;89724;-66
2023/10/27 08:11:24;;;;;;;6.30;3.77;;;9.60;99.90;9.60;98245.00;;;;4885001;28;88162;-66
2023/10/27 08:13:50;;;;;;;4.07;3.57;;;9.70;99.90;9.60;98248.00;;;;4878375;28;88234;-66
2023/10/27 08:16:16;;;;;;;4.23;3.83;;;9.70;99.90;9.60;98243.00;;;;4884314;28;114128;-66
2023/10/27 08:18:42;;;;;;;6.00;4.13;;;9.70;99.90;9.70;98242.00;;;;4878607;28;96824;-65
2023/10/27 08:21:08;;;;;;;5.07;4.23;;;9.70;99.90;9.60;98252.00;;;;4884495;28;110103;-64
2023/10/27 08:23:34;;;;;;;6.63;4.27;;;9.70;99.90;9.70;98253.00;;;;4875736;28;87130;-67
2023/10/27 08:25:59;;;;;;;5.30;3.83;;;9.70;99.90;9.70;98256.00;;;;4868505;28;106959;-64
2023/10/27 08:28:27;;;;;;;5.13;3.43;;;9.70;99.90;9.70;98248.00;;;;4877193;28;116109;-65
2023/10/27 08:30:53;;;;;;;5.67;3.77;;;9.70;99.90;9.70;98257.00;;;;4885709;28;89302;-66
2023/10/27 08:33:19;;;;;;;3.37;3.07;;;9.70;99.90;9.70;98258.00;;;;4883279;28;87948;-65
2023/10/27 08:35:44;;;;;;;5.17;3.60;;;9.80;99.90;9.70;98252.00;;;;4885490;28;110765;-65
2023/10/27 08:38:10;;;;;;;7.40;4.07;;;9.80;99.90;9.80;98265.00;;;;4876039;28;117070;-65
2023/10/27 08:40:36;;;;;;;4.50;3.43;;;9.80;99.90;9.80;98261.00;;;;4887394;28;87912;-66
2023/10/27 08:43:03;;;;;;;4.83;3.53;;;9.80;99.90;9.80;98269.00;;;;4871851;28;88009;-66
2023/10/27 08:45:31;;;;;;;4.83;3.60;;;9.90;99.90;9.80;98265.00;;;;4886819;28;89452;-66
2023/10/27 08:48:00;;;;;;;4.03;3.03;;;9.80;99.90;9.90;98265.00;;;;4876425;28;102847;-66
2023/10/27 08:50:27;;;;;;;5.00;2.93;;;9.90;99.90;9.90;98255.00;;;;4887675;28;87919;-67
2023/10/27 08:52:52;;;;;;;5.83;3.73;;;9.90;99.90;9.80;98256.00;;;;4878884;28;87922;-65
2023/10/27 08:55:20;;;;;;;5.20;3.33;;;9.90;99.90;9.80;98256.00;;;;4882807;28;119011;-67
2023/10/27 08:57:46;;;;;;;3.87;3.40;;;9.90;99.90;9.80;98253.00;;;;4876449;28;89805;-68
2023/10/27 09:00:12;;;;;;;5.03;3.33;;;9.80;99.90;9.80;98260.00;;;;4882603;28;110639;-67
2023/10/27 09:02:38;;;;;;;3.20;2.47;;;9.90;99.90;9.80;98253.00;;;;4877273;28;91155;-68
2023/10/27 09:05:09;;;;;;;6.23;4.27;;;9.90;99.90;9.80;98263.00;;;;4883468;28;88196;-67
2023/10/27 09:07:38;;;;;;;7.47;5.13;;;9.80;99.90;9.80;98263.00;;;;4875680;28;89084;-67
2023/10/27 09:10:08;;;;;;;5.97;4.13;;;9.80;99.90;9.80;98252.00;;;;4882185;28;110408;-67
2023/10/27 09:12:38;;;;;;;6.83;4.83;;;9.80;99.90;9.80;98255.00;;;;4876763;28;87207;-65
2023/10/27 09:15:07;;;;;;;8.17;3.77;;;9.80;99.90;9.80;98257.00;;;;4860810;28;88037;-66
2023/10/27 09:17:57;;;;;;;8.60;4.97;;;9.80;99.90;9.70;98251.00;;;;4874937;28;88296;-66
2023/10/27 09:20:25;;;;;;;4.53;3.37;;;9.80;99.90;9.80;98250.00;;;;4863309;28;88891;-65
2023/10/27 09:23:01;;;;;;;4.97;4.33;;;9.80;99.90;9.80;98254.00;;;;4873616;28;88045;-65
2023/10/27 09:25:28;;;;;;;9.40;5.27;;;9.90;99.90;9.80;98263.00;;;;4884345;28;88295;-66
2023/10/27 09:27:56;;;;;;;5.80;4.07;;;9.80;99.90;9.80;98254.00;;;;4885705;28;88097;-65
2023/10/27 09:30:26;;;;;;;6.17;3.53;;;9.80;99.90;9.80;98254.00;;;;4884695;28;94258;-66
2023/10/27 09:32:52;;;;;;;6.23;5.07;;;9.80;99.90;9.80;98254.00;;;;4876780;28;88013;-65
2023/10/27 09:35:19;;;;;;;6.00;4.70;;;9.80;99.90;9.80;98261.00;;;;4870391;28;118632;-65
2023/10/27 09:37:48;;;;;;;5.67;4.20;;;9.90;99.90;9.80;98261.00;;;;4869384;28;87977;-63
2023/10/27 09:40:15;;;;;;;6.63;3.57;;;9.90;99.90;9.80;98252.00;;;;4866720;28;87932;-64
2023/10/27 09:42:40;;;;;;;6.63;3.83;;;9.90;99.90;9.80;98267.00;;;;4873979;28;88224;-64
2023/10/27 09:45:14;;;;;;;4.37;3.97;;;9.90;99.90;9.80;98267.00;;;;4875171;28;117605;-65
2023/10/27 09:47:47;;;;;;;4.87;4.30;;;10.00;99.90;9.90;98267.00;;;;4884508;28;89748;-65
2023/10/27 09:50:21;;;;;;;7.13;5.33;;;9.90;99.90;9.90;98260.00;;;;4884275;28;87942;-65
2023/10/27 09:52:49;;;;;;;5.03;3.90;;;9.90;99.90;9.90;98259.00;;;;4884576;28;87799;-64
2023/10/27 09:55:19;;;;;;;5.43;3.47;;;9.90;99.90;9.90;98261.00;;;;4881915;28;88899;-64
2023/10/27 09:57:45;;;;;;;6.10;4.10;;;9.90;99.90;10.00;98252.00;;;;4884629;28;88265;-65
2023/10/27 10:00:31;;;;;;;5.30;3.87;;;10.00;99.90;10.00;98260.00;;;;4882717;28;87912;-65
2023/10/27 10:02:58;;;;;;;9.30;5.77;;;10.00;99.90;10.00;98254.00;;;;4867947;28;87310;-65
2023/10/27 10:05:24;;;;;;;7.17;4.80;;;10.00;99.90;10.00;98255.00;;;;4851600;28;90590;-65
2023/10/27 10:07:55;;;;;;;8.30;5.83;;;10.00;99.90;10.00;98251.00;;;;4884574;28;87836;-66
2023/10/27 10:10:34;;;;;;;7.63;4.43;;;10.10;99.90;10.00;98251.00;;;;4882640;28;90279;-65
2023/10/27 10:13:15;;;;;;;5.60;4.33;;;10.00;99.90;10.00;98257.00;;;;4887358;28;88005;-66
2023/10/27 10:15:43;;;;;;;6.20;3.73;;;10.00;99.90;10.00;98250.00;;;;4885855;28;89365;-66
2023/10/27 10:18:44;;;;;;;7.57;5.07;;;10.10;99.90;9.90;98247.00;;;;4885595;28;88381;-65
2023/10/27 10:21:09;;;;;;;8.03;5.00;;;10.00;99.90;9.90;98248.00;;;;4879802;28;87796;-64
2023/10/27 10:23:38;;;;;;;10.77;6.17;;;10.00;99.90;10.00;98241.00;;;;4882739;28;108588;-64
2023/10/27 10:26:04;;;;;;;5.03;4.20;;;10.00;99.90;10.00;98241.00;;;;4883217;28;88689;-64
2023/10/27 10:28:34;;;;;;;7.03;4.93;;;10.00;99.90;10.00;98235.00;;;;4881348;28;88682;-65
2023/10/27 10:31:16;;;;;;;4.53;3.63;;;10.00;99.90;10.00;98240.00;;;;4885238;28;87999;-64
2023/10/27 10:33:48;;;;;;;7.87;4.47;;;10.10;99.90;10.00;98241.00;;;;4883697;28;88080;-64
2023/10/27 10:36:14;;;;;;;7.03;5.20;;;9.70;99.90;10.10;98238.00;;;;4884660;28;89277;-65
2023/10/27 10:38:57;;;;;;;9.10;5.17;;;10.10;99.90;10.10;98241.00;;;;4883576;28;89722;-64
2023/10/27 10:41:43;;;;;;;7.27;5.17;;;10.10;99.90;10.10;98246.00;;;;4884978;28;88010;-65
2023/10/27 10:44:16;;;;;;;5.30;4.77;;;10.20;99.90;10.20;98248.00;;;;4876624;28;87733;-65
2023/10/27 10:46:44;;;;;;;9.00;5.37;;;10.20;99.90;10.20;98238.00;;;;4883532;28;88061;-65
2023/10/27 10:49:22;;;;;;;7.10;5.07;;;10.20;99.90;10.20;98228.00;;;;4881183;28;88280;-65
2023/10/27 10:51:53;;;;;;;8.20;4.43;;;10.30;99.90;10.20;98223.00;;;;4881102;28;103619;-66
2023/10/27 10:54:20;;;;;;;4.73;3.93;;;10.30;99.90;10.20;98230.00;;;;4867640;28;87190;-67
2023/10/27 10:56:46;;;;;;;5.77;4.10;;;10.30;99.90;10.20;98228.00;;;;4883575;28;89141;-67
2023/10/27 10:59:22;;;;;;;12.27;4.97;;;10.30;99.90;10.20;98239.00;;;;4881267;28;117153;-66
2023/10/27 11:01:55;;;;;;;4.10;3.70;;;10.30;99.90;10.30;98239.00;;;;4882529;28;89135;-66
2023/10/27 11:04:31;;;;;;;6.57;4.57;;;10.30;99.90;10.30;98242.00;;;;4882925;28;88077;-66